sensor_id;sensor_type;location;lat;lon;timestamp;temperature;humidity
63976;DHT22;50167;47.958;21.780;2022-12-10T00:01:14;12.95;67.11
63976;DHT22;50167;47.958;21.780;2022-12-10T00:03:42;14.06;65.52
63976;DHT22;50167;47.958;21.780;2022-12-10T00:06:12;14.72;63.05
63976;DHT22;50167;47.958;21.780;2022-12-10T00:08:39;15.16;61.48
63976;DHT22;50167;47.958;21.780;2022-12-10T00:11:07;15.46;60.36
63976;DHT22;50167;47.958;21.780;2022-12-10T00:13:35;15.67;59.65
63976;DHT22;50167;47.958;21.780;2022-12-10T00:16:03;15.88;59.13
63976;DHT22;50167;47.958;21.780;2022-12-10T00:18:29;15.33;57.81
63976;DHT22;50167;47.958;21.780;2022-12-10T00:20:56;14.19;60.48
63976;DHT22;50167;47.958;21.780;2022-12-10T00:23:22;13.24;63.68
63976;DHT22;50167;47.958;21.780;2022-12-10T00:25:49;13.40;69.73
63976;DHT22;50167;47.958;21.780;2022-12-10T00:28:15;14.10;67.42
63976;DHT22;50167;47.958;21.780;2022-12-10T00:30:41;14.51;66.93
63976;DHT22;50167;47.958;21.780;2022-12-10T00:33:07;14.77;66.92
63976;DHT22;50167;47.958;21.780;2022-12-10T00:35:36;14.91;66.41
63976;DHT22;50167;47.958;21.780;2022-12-10T00:38:03;15.09;66.25
63976;DHT22;50167;47.958;21.780;2022-12-10T00:40:29;15.17;65.90
63976;DHT22;50167;47.958;21.780;2022-12-10T00:42:55;15.37;65.47
63976;DHT22;50167;47.958;21.780;2022-12-10T00:45:21;15.54;65.05
63976;DHT22;50167;47.958;21.780;2022-12-10T00:47:47;15.63;64.60
63976;DHT22;50167;47.958;21.780;2022-12-10T00:50:13;15.77;64.05
63976;DHT22;50167;47.958;21.780;2022-12-10T00:52:39;15.80;63.88
63976;DHT22;50167;47.958;21.780;2022-12-10T00:55:05;15.85;63.92
63976;DHT22;50167;47.958;21.780;2022-12-10T00:57:32;15.93;63.56
63976;DHT22;50167;47.958;21.780;2022-12-10T00:59:57;15.96;63.67
63976;DHT22;50167;47.958;21.780;2022-12-10T01:02:24;15.95;63.56
63976;DHT22;50167;47.958;21.780;2022-12-10T01:04:53;16.05;63.31
63976;DHT22;50167;47.958;21.780;2022-12-10T01:07:19;15.95;63.50
63976;DHT22;50167;47.958;21.780;2022-12-10T01:09:45;15.99;63.40
63976;DHT22;50167;47.958;21.780;2022-12-10T01:12:11;15.98;63.54
63976;DHT22;50167;47.958;21.780;2022-12-10T01:14:37;15.99;63.36
63976;DHT22;50167;47.958;21.780;2022-12-10T01:17:05;16.02;63.53
63976;DHT22;50167;47.958;21.780;2022-12-10T01:19:33;16.12;63.17
63976;DHT22;50167;47.958;21.780;2022-12-10T01:21:59;16.05;63.35
63976;DHT22;50167;47.958;21.780;2022-12-10T01:24:27;16.01;63.40
63976;DHT22;50167;47.958;21.780;2022-12-10T01:26:54;16.07;63.38
63976;DHT22;50167;47.958;21.780;2022-12-10T01:29:23;15.93;63.86
63976;DHT22;50167;47.958;21.780;2022-12-10T01:31:54;15.95;63.85
63976;DHT22;50167;47.958;21.780;2022-12-10T01:34:21;15.95;63.92
63976;DHT22;50167;47.958;21.780;2022-12-10T01:36:51;16.04;63.71
63976;DHT22;50167;47.958;21.780;2022-12-10T01:39:19;16.08;63.65
63976;DHT22;50167;47.958;21.780;2022-12-10T01:41:54;16.02;63.84
63976;DHT22;50167;47.958;21.780;2022-12-10T01:46:59;16.07;63.78
63976;DHT22;50167;47.958;21.780;2022-12-10T01:49:36;16.13;63.56
63976;DHT22;50167;47.958;21.780;2022-12-10T01:52:06;16.15;63.43
63976;DHT22;50167;47.958;21.780;2022-12-10T01:54:37;16.13;63.54
63976;DHT22;50167;47.958;21.780;2022-12-10T01:57:16;16.05;63.78
63976;DHT22;50167;47.958;21.780;2022-12-10T01:59:40;16.08;63.96
63976;DHT22;50167;47.958;21.780;2022-12-10T02:13:41;15.95;64.44
63976;DHT22;50167;47.958;21.780;2022-12-10T02:16:21;15.86;64.56
63976;DHT22;50167;47.958;21.780;2022-12-10T02:21:38;15.98;64.51
63976;DHT22;50167;47.958;21.780;2022-12-10T02:24:14;16.02;64.38
63976;DHT22;50167;47.958;21.780;2022-12-10T02:29:28;15.98;65.03
63976;DHT22;50167;47.958;21.780;2022-12-10T02:32:08;16.05;64.79
63976;DHT22;50167;47.958;21.780;2022-12-10T02:34:40;16.08;64.81
63976;DHT22;50167;47.958;21.780;2022-12-10T02:37:15;16.13;64.75
63976;DHT22;50167;47.958;21.780;2022-12-10T02:39:45;16.16;64.49
63976;DHT22;50167;47.958;21.780;2022-12-10T02:42:12;16.20;64.33
63976;DHT22;50167;47.958;21.780;2022-12-10T02:44:42;16.16;64.30
63976;DHT22;50167;47.958;21.780;2022-12-10T02:47:11;16.29;64.21
63976;DHT22;50167;47.958;21.780;2022-12-10T02:49:39;16.28;64.37
63976;DHT22;50167;47.958;21.780;2022-12-10T02:52:12;16.47;63.77
63976;DHT22;50167;47.958;21.780;2022-12-10T02:54:46;16.61;63.23
63976;DHT22;50167;47.958;21.780;2022-12-10T03:00:18;16.44;63.76
63976;DHT22;50167;47.958;21.780;2022-12-10T03:08:51;16.68;63.22
63976;DHT22;50167;47.958;21.780;2022-12-10T03:11:21;16.70;62.98
63976;DHT22;50167;47.958;21.780;2022-12-10T03:13:58;16.68;63.16
63976;DHT22;50167;47.958;21.780;2022-12-10T03:16:29;16.67;63.14
63976;DHT22;50167;47.958;21.780;2022-12-10T03:19:01;16.80;62.75
63976;DHT22;50167;47.958;21.780;2022-12-10T03:21:29;16.77;62.96
63976;DHT22;50167;47.958;21.780;2022-12-10T03:23:56;16.83;62.99
63976;DHT22;50167;47.958;21.780;2022-12-10T03:26:22;16.88;62.87
63976;DHT22;50167;47.958;21.780;2022-12-10T03:28:54;16.87;62.90
63976;DHT22;50167;47.958;21.780;2022-12-10T03:31:21;16.97;62.52
63976;DHT22;50167;47.958;21.780;2022-12-10T03:33:48;16.90;62.63
63976;DHT22;50167;47.958;21.780;2022-12-10T03:36:17;16.84;63.10
63976;DHT22;50167;47.958;21.780;2022-12-10T03:38:44;16.75;63.32
63976;DHT22;50167;47.958;21.780;2022-12-10T03:41:10;16.72;63.44
63976;DHT22;50167;47.958;21.780;2022-12-10T03:43:55;16.72;63.76
63976;DHT22;50167;47.958;21.780;2022-12-10T03:46:28;16.68;63.66
63976;DHT22;50167;47.958;21.780;2022-12-10T03:48:57;16.80;63.53
63976;DHT22;50167;47.958;21.780;2022-12-10T03:51:23;16.87;63.38
63976;DHT22;50167;47.958;21.780;2022-12-10T03:53:49;16.90;63.33
63976;DHT22;50167;47.958;21.780;2022-12-10T03:56:17;16.80;63.34
63976;DHT22;50167;47.958;21.780;2022-12-10T03:58:43;16.84;63.49
63976;DHT22;50167;47.958;21.780;2022-12-10T04:01:10;16.75;63.75
63976;DHT22;50167;47.958;21.780;2022-12-10T04:03:39;16.78;63.70
63976;DHT22;50167;47.958;21.780;2022-12-10T04:06:10;16.71;63.76
63976;DHT22;50167;47.958;21.780;2022-12-10T04:08:37;16.68;64.15
63976;DHT22;50167;47.958;21.780;2022-12-10T04:11:06;16.78;63.86
63976;DHT22;50167;47.958;21.780;2022-12-10T04:13:35;16.77;64.05
63976;DHT22;50167;47.958;21.780;2022-12-10T04:16:21;16.61;64.16
63976;DHT22;50167;47.958;21.780;2022-12-10T04:18:59;16.43;65.41
63976;DHT22;50167;47.958;21.780;2022-12-10T04:21:28;16.63;64.86
63976;DHT22;50167;47.958;21.780;2022-12-10T04:24:15;16.49;64.97
63976;DHT22;50167;47.958;21.780;2022-12-10T04:27:08;16.67;64.78
63976;DHT22;50167;47.958;21.780;2022-12-10T04:29:34;16.60;64.40
63976;DHT22;50167;47.958;21.780;2022-12-10T04:32:00;16.78;64.49
63976;DHT22;50167;47.958;21.780;2022-12-10T04:34:26;16.87;64.28
63976;DHT22;50167;47.958;21.780;2022-12-10T04:36:53;16.77;64.53
63976;DHT22;50167;47.958;21.780;2022-12-10T04:39:19;16.71;64.63
63976;DHT22;50167;47.958;21.780;2022-12-10T04:41:48;16.40;65.36
63976;DHT22;50167;47.958;21.780;2022-12-10T04:44:16;16.60;65.00
63976;DHT22;50167;47.958;21.780;2022-12-10T04:46:42;16.75;64.58
63976;DHT22;50167;47.958;21.780;2022-12-10T04:49:08;16.80;64.46
63976;DHT22;50167;47.958;21.780;2022-12-10T04:51:35;16.71;64.71
63976;DHT22;50167;47.958;21.780;2022-12-10T04:54:02;16.75;64.54
63976;DHT22;50167;47.958;21.780;2022-12-10T04:56:29;16.92;64.24
63976;DHT22;50167;47.958;21.780;2022-12-10T04:58:57;16.94;64.17
63976;DHT22;50167;47.958;21.780;2022-12-10T05:01:24;16.81;64.31
63976;DHT22;50167;47.958;21.780;2022-12-10T05:03:50;16.83;64.43
63976;DHT22;50167;47.958;21.780;2022-12-10T05:06:18;16.95;64.02
63976;DHT22;50167;47.958;21.780;2022-12-10T05:08:45;16.95;64.12
63976;DHT22;50167;47.958;21.780;2022-12-10T05:11:18;16.97;64.13
63976;DHT22;50167;47.958;21.780;2022-12-10T05:13:46;17.02;63.88
63976;DHT22;50167;47.958;21.780;2022-12-10T05:16:16;17.14;63.74
63976;DHT22;50167;47.958;21.780;2022-12-10T05:18:42;16.98;64.01
63976;DHT22;50167;47.958;21.780;2022-12-10T05:21:12;16.86;64.39
63976;DHT22;50167;47.958;21.780;2022-12-10T05:23:43;17.02;64.10
63976;DHT22;50167;47.958;21.780;2022-12-10T05:26:13;17.21;63.65
63976;DHT22;50167;47.958;21.780;2022-12-10T05:28:47;17.11;63.75
63976;DHT22;50167;47.958;21.780;2022-12-10T05:31:18;17.04;63.99
63976;DHT22;50167;47.958;21.780;2022-12-10T05:33:45;17.23;63.40
63976;DHT22;50167;47.958;21.780;2022-12-10T05:36:15;16.97;64.42
63976;DHT22;50167;47.958;21.780;2022-12-10T05:38:42;16.95;64.17
63976;DHT22;50167;47.958;21.780;2022-12-10T05:41:17;17.09;64.21
63976;DHT22;50167;47.958;21.780;2022-12-10T05:43:44;17.15;63.96
63976;DHT22;50167;47.958;21.780;2022-12-10T05:46:15;17.02;64.31
63976;DHT22;50167;47.958;21.780;2022-12-10T05:48:41;17.16;63.92
63976;DHT22;50167;47.958;21.780;2022-12-10T05:51:11;17.11;63.98
63976;DHT22;50167;47.958;21.780;2022-12-10T05:53:38;17.26;63.51
63976;DHT22;50167;47.958;21.780;2022-12-10T05:56:13;17.26;63.44
63976;DHT22;50167;47.958;21.780;2022-12-10T05:58:38;17.30;63.16
63976;DHT22;50167;47.958;21.780;2022-12-10T06:01:14;17.35;63.35
63976;DHT22;50167;47.958;21.780;2022-12-10T06:03:41;17.37;63.09
63976;DHT22;50167;47.958;21.780;2022-12-10T06:06:09;17.40;63.06
63976;DHT22;50167;47.958;21.780;2022-12-10T06:08:36;17.42;62.97
63976;DHT22;50167;47.958;21.780;2022-12-10T06:11:05;17.43;62.94
63976;DHT22;50167;47.958;21.780;2022-12-10T06:13:32;17.45;62.85
63976;DHT22;50167;47.958;21.780;2022-12-10T06:15:59;17.43;62.66
63976;DHT22;50167;47.958;21.780;2022-12-10T06:18:25;17.49;62.76
63976;DHT22;50167;47.958;21.780;2022-12-10T06:20:51;17.60;62.31
63976;DHT22;50167;47.958;21.780;2022-12-10T06:23:17;17.62;62.35
63976;DHT22;50167;47.958;21.780;2022-12-10T06:25:43;17.60;62.29
63976;DHT22;50167;47.958;21.780;2022-12-10T06:28:10;17.54;62.49
63976;DHT22;50167;47.958;21.780;2022-12-10T06:30:36;17.63;62.18
63976;DHT22;50167;47.958;21.780;2022-12-10T06:33:02;17.56;62.43
63976;DHT22;50167;47.958;21.780;2022-12-10T06:35:28;17.56;62.37
63976;DHT22;50167;47.958;21.780;2022-12-10T06:37:54;17.50;62.51
63976;DHT22;50167;47.958;21.780;2022-12-10T06:40:20;17.45;62.67
63976;DHT22;50167;47.958;21.780;2022-12-10T06:42:46;17.52;62.56
63976;DHT22;50167;47.958;21.780;2022-12-10T06:45:12;17.63;62.24
63976;DHT22;50167;47.958;21.780;2022-12-10T06:47:38;17.63;61.91
63976;DHT22;50167;47.958;21.780;2022-12-10T06:50:05;17.54;62.48
63976;DHT22;50167;47.958;21.780;2022-12-10T06:52:31;17.56;62.34
63976;DHT22;50167;47.958;21.780;2022-12-10T06:54:58;17.53;62.21
63976;DHT22;50167;47.958;21.780;2022-12-10T06:57:24;17.57;62.30
63976;DHT22;50167;47.958;21.780;2022-12-10T06:59:50;17.54;62.27
63976;DHT22;50167;47.958;21.780;2022-12-10T07:02:16;17.50;62.40
63976;DHT22;50167;47.958;21.780;2022-12-10T07:04:42;17.39;62.56
63976;DHT22;50167;47.958;21.780;2022-12-10T07:07:08;17.43;62.43
63976;DHT22;50167;47.958;21.780;2022-12-10T07:09:34;17.47;62.42
63976;DHT22;50167;47.958;21.780;2022-12-10T07:12:00;17.39;62.62
63976;DHT22;50167;47.958;21.780;2022-12-10T07:14:27;17.30;62.99
63976;DHT22;50167;47.958;21.780;2022-12-10T07:16:53;17.32;62.71
63976;DHT22;50167;47.958;21.780;2022-12-10T07:19:19;17.39;62.69
63976;DHT22;50167;47.958;21.780;2022-12-10T07:21:45;17.49;62.66
63976;DHT22;50167;47.958;21.780;2022-12-10T07:24:15;17.53;62.38
63976;DHT22;50167;47.958;21.780;2022-12-10T07:26:44;17.67;62.06
63976;DHT22;50167;47.958;21.780;2022-12-10T07:29:18;17.62;61.92
63976;DHT22;50167;47.958;21.780;2022-12-10T07:31:45;17.70;61.86
63976;DHT22;50167;47.958;21.780;2022-12-10T07:34:12;17.76;61.50
63976;DHT22;50167;47.958;21.780;2022-12-10T07:36:38;17.73;61.63
63976;DHT22;50167;47.958;21.780;2022-12-10T07:39:07;17.73;61.53
63976;DHT22;50167;47.958;21.780;2022-12-10T07:41:35;17.80;61.38
63976;DHT22;50167;47.958;21.780;2022-12-10T07:44:03;17.91;60.94
63976;DHT22;50167;47.958;21.780;2022-12-10T07:46:32;17.78;61.11
63976;DHT22;50167;47.958;21.780;2022-12-10T07:49:02;17.77;61.25
63976;DHT22;50167;47.958;21.780;2022-12-10T07:51:29;17.81;61.02
63976;DHT22;50167;47.958;21.780;2022-12-10T07:53:56;17.70;61.28
63976;DHT22;50167;47.958;21.780;2022-12-10T07:56:24;17.76;61.42
63976;DHT22;50167;47.958;21.780;2022-12-10T07:58:52;17.91;60.81
63976;DHT22;50167;47.958;21.780;2022-12-10T08:01:22;17.85;60.84
63976;DHT22;50167;47.958;21.780;2022-12-10T08:03:50;17.77;60.95
63976;DHT22;50167;47.958;21.780;2022-12-10T08:06:19;17.72;60.95
63976;DHT22;50167;47.958;21.780;2022-12-10T08:08:46;17.72;60.88
63976;DHT22;50167;47.958;21.780;2022-12-10T08:11:14;17.63;61.05
63976;DHT22;50167;47.958;21.780;2022-12-10T08:13:41;17.56;61.27
63976;DHT22;50167;47.958;21.780;2022-12-10T08:16:15;17.50;61.36
63976;DHT22;50167;47.958;21.780;2022-12-10T08:18:41;17.40;61.56
63976;DHT22;50167;47.958;21.780;2022-12-10T08:21:17;17.47;61.39
63976;DHT22;50167;47.958;21.780;2022-12-10T08:23:45;17.47;61.45
63976;DHT22;50167;47.958;21.780;2022-12-10T08:26:16;17.54;61.25
63976;DHT22;50167;47.958;21.780;2022-12-10T08:28:43;17.53;61.10
63976;DHT22;50167;47.958;21.780;2022-12-10T08:31:11;17.49;61.24
63976;DHT22;50167;47.958;21.780;2022-12-10T08:33:38;17.63;60.84
63976;DHT22;50167;47.958;21.780;2022-12-10T08:36:07;17.67;60.44
63976;DHT22;50167;47.958;21.780;2022-12-10T08:38:35;17.54;60.19
63976;DHT22;50167;47.958;21.780;2022-12-10T08:41:21;17.54;60.03
63976;DHT22;50167;47.958;21.780;2022-12-10T08:43:50;17.54;59.96
63976;DHT22;50167;47.958;21.780;2022-12-10T08:46:16;17.56;59.88
63976;DHT22;50167;47.958;21.780;2022-12-10T08:48:42;17.60;59.80
63976;DHT22;50167;47.958;21.780;2022-12-10T08:51:14;17.67;59.44
63976;DHT22;50167;47.958;21.780;2022-12-10T08:53:40;17.01;59.63
63976;DHT22;50167;47.958;21.780;2022-12-10T08:56:07;15.81;63.10
63976;DHT22;50167;47.958;21.780;2022-12-10T08:58:33;15.44;65.27
63976;DHT22;50167;47.958;21.780;2022-12-10T09:00:59;15.88;64.84
63976;DHT22;50167;47.958;21.780;2022-12-10T09:03:27;16.11;64.49
63976;DHT22;50167;47.958;21.780;2022-12-10T09:05:53;16.30;63.98
63976;DHT22;50167;47.958;21.780;2022-12-10T09:08:19;16.51;63.43
63976;DHT22;50167;47.958;21.780;2022-12-10T09:10:46;16.64;62.54
63976;DHT22;50167;47.958;21.780;2022-12-10T09:13:12;16.75;62.23
63976;DHT22;50167;47.958;21.780;2022-12-10T09:15:38;16.71;62.30
63976;DHT22;50167;47.958;21.780;2022-12-10T09:18:04;16.56;62.60
63976;DHT22;50167;47.958;21.780;2022-12-10T09:20:30;16.53;62.58
63976;DHT22;50167;47.958;21.780;2022-12-10T09:22:56;16.41;62.73
63976;DHT22;50167;47.958;21.780;2022-12-10T09:25:23;16.41;62.61
63976;DHT22;50167;47.958;21.780;2022-12-10T09:27:49;16.41;62.65
63976;DHT22;50167;47.958;21.780;2022-12-10T09:30:15;16.37;62.72
63976;DHT22;50167;47.958;21.780;2022-12-10T09:32:41;16.43;62.58
63976;DHT22;50167;47.958;21.780;2022-12-10T09:35:07;16.44;62.44
63976;DHT22;50167;47.958;21.780;2022-12-10T09:37:34;16.41;62.36
63976;DHT22;50167;47.958;21.780;2022-12-10T09:40:00;16.29;62.53
63976;DHT22;50167;47.958;21.780;2022-12-10T09:45:37;16.20;62.55
63976;DHT22;50167;47.958;21.780;2022-12-10T09:51:14;15.57;62.21
63976;DHT22;50167;47.958;21.780;2022-12-10T09:53:38;14.86;62.27
63976;DHT22;50167;47.958;21.780;2022-12-10T09:56:05;14.63;62.30
63976;DHT22;50167;47.958;21.780;2022-12-10T09:58:34;14.08;62.88
63976;DHT22;50167;47.958;21.780;2022-12-10T10:01:05;13.77;63.23
63976;DHT22;50167;47.958;21.780;2022-12-10T10:03:37;13.54;63.52
63976;DHT22;50167;47.958;21.780;2022-12-10T10:06:04;13.43;63.70
63976;DHT22;50167;47.958;21.780;2022-12-10T10:08:47;13.64;63.31
63976;DHT22;50167;47.958;21.780;2022-12-10T10:11:21;13.70;62.98
63976;DHT22;50167;47.958;21.780;2022-12-10T10:14:05;13.64;63.43
63976;DHT22;50167;47.958;21.780;2022-12-10T10:16:54;13.43;63.14
63976;DHT22;50167;47.958;21.780;2022-12-10T10:19:27;13.54;63.03
63976;DHT22;50167;47.958;21.780;2022-12-10T10:21:54;13.37;63.08
63976;DHT22;50167;47.958;21.780;2022-12-10T10:24:28;13.12;63.52
63976;DHT22;50167;47.958;21.780;2022-12-10T10:26:53;13.38;63.33
63976;DHT22;50167;47.958;21.780;2022-12-10T10:29:21;13.51;62.60
63976;DHT22;50167;47.958;21.780;2022-12-10T10:32:13;13.57;62.32
63976;DHT22;50167;47.958;21.780;2022-12-10T10:34:39;13.58;62.20
63976;DHT22;50167;47.958;21.780;2022-12-10T10:37:05;13.86;62.22
63976;DHT22;50167;47.958;21.780;2022-12-10T10:39:33;13.89;61.56
63976;DHT22;50167;47.958;21.780;2022-12-10T10:42:08;13.84;61.34
63976;DHT22;50167;47.958;21.780;2022-12-10T10:44:37;13.77;61.42
63976;DHT22;50167;47.958;21.780;2022-12-10T10:49:51;13.20;62.13
63976;DHT22;50167;47.958;21.780;2022-12-10T10:52:19;13.09;62.33
63976;DHT22;50167;47.958;21.780;2022-12-10T10:54:47;12.92;62.51
63976;DHT22;50167;47.958;21.780;2022-12-10T10:57:25;13.03;62.13
63976;DHT22;50167;47.958;21.780;2022-12-10T11:00:02;13.06;62.25
63976;DHT22;50167;47.958;21.780;2022-12-10T11:05:16;13.55;61.57
63976;DHT22;50167;47.958;21.780;2022-12-10T11:07:43;13.81;61.25
63976;DHT22;50167;47.958;21.780;2022-12-10T11:10:22;13.98;60.38
63976;DHT22;50167;47.958;21.780;2022-12-10T11:20:23;11.48;63.37
63976;DHT22;50167;47.958;21.780;2022-12-10T11:22:33;11.73;66.17
63976;DHT22;50167;47.958;21.780;2022-12-10T11:25:00;12.83;64.17
63976;DHT22;50167;47.958;21.780;2022-12-10T11:30:55;13.98;60.10
63976;DHT22;50167;47.958;21.780;2022-12-10T11:33:54;14.17;59.03
63976;DHT22;50167;47.958;21.780;2022-12-10T11:36:24;13.50;57.49
63976;DHT22;50167;47.958;21.780;2022-12-10T11:42:38;10.90;61.95
63976;DHT22;50167;47.958;21.780;2022-12-10T11:50:02;12.72;63.84
63976;DHT22;50167;47.958;21.780;2022-12-10T11:52:40;13.20;62.46
63976;DHT22;50167;47.958;21.780;2022-12-10T12:01:13;13.85;59.83
63976;DHT22;50167;47.958;21.780;2022-12-10T12:03:59;13.44;57.74
63976;DHT22;50167;47.958;21.780;2022-12-10T12:06:43;12.26;58.98
63976;DHT22;50167;47.958;21.780;2022-12-10T12:15:00;12.27;64.49
63976;DHT22;50167;47.958;21.780;2022-12-10T12:17:50;12.69;63.36
63976;DHT22;50167;47.958;21.780;2022-12-10T12:20:34;13.04;62.04
63976;DHT22;50167;47.958;21.780;2022-12-10T12:23:21;13.35;60.92
63976;DHT22;50167;47.958;21.780;2022-12-10T12:25:49;13.43;60.01
63976;DHT22;50167;47.958;21.780;2022-12-10T12:28:35;13.60;59.47
63976;DHT22;50167;47.958;21.780;2022-12-10T12:31:22;12.76;60.13
63976;DHT22;50167;47.958;21.780;2022-12-10T12:36:39;10.55;66.85
63976;DHT22;50167;47.958;21.780;2022-12-10T12:51:00;12.99;61.14
63976;DHT22;50167;47.958;21.780;2022-12-10T12:53:26;13.04;60.39
63976;DHT22;50167;47.958;21.780;2022-12-10T12:56:29;13.16;60.07
63976;DHT22;50167;47.958;21.780;2022-12-10T13:06:29;11.94;64.08
63976;DHT22;50167;47.958;21.780;2022-12-10T13:09:17;12.72;61.41
63976;DHT22;50167;47.958;21.780;2022-12-10T13:22:10;12.87;59.95
63976;DHT22;50167;47.958;21.780;2022-12-10T13:27:18;12.52;57.93
63976;DHT22;50167;47.958;21.780;2022-12-10T13:37:13;12.17;61.89
63976;DHT22;50167;47.958;21.780;2022-12-10T13:39:44;12.61;61.36
63976;DHT22;50167;47.958;21.780;2022-12-10T13:45:05;12.56;59.41
63976;DHT22;50167;47.958;21.780;2022-12-10T13:47:49;11.40;60.71
63976;DHT22;50167;47.958;21.780;2022-12-10T13:56:27;12.07;61.26
63976;DHT22;50167;47.958;21.780;2022-12-10T13:59:13;12.13;60.94
63976;DHT22;50167;47.958;21.780;2022-12-10T14:05:27;11.99;60.92
63976;DHT22;50167;47.958;21.780;2022-12-10T14:08:02;12.04;60.77
63976;DHT22;50167;47.958;21.780;2022-12-10T14:10:35;12.09;60.67
63976;DHT22;50167;47.958;21.780;2022-12-10T14:13:04;11.89;60.98
63976;DHT22;50167;47.958;21.780;2022-12-10T14:15:32;11.88;60.92
63976;DHT22;50167;47.958;21.780;2022-12-10T14:18:08;11.94;61.01
63976;DHT22;50167;47.958;21.780;2022-12-10T14:20:31;11.73;61.09
63976;DHT22;50167;47.958;21.780;2022-12-10T14:23:05;12.07;61.67
63976;DHT22;50167;47.958;21.780;2022-12-10T14:30:01;12.59;58.61
63976;DHT22;50167;47.958;21.780;2022-12-10T14:32:37;11.44;60.17
63976;DHT22;50167;47.958;21.780;2022-12-10T14:35:06;10.18;64.30
63976;DHT22;50167;47.958;21.780;2022-12-10T14:37:36;10.68;64.82
63976;DHT22;50167;47.958;21.780;2022-12-10T14:40:06;11.21;63.69
63976;DHT22;50167;47.958;21.780;2022-12-10T14:42:38;11.35;62.02
63976;DHT22;50167;47.958;21.780;2022-12-10T14:45:07;11.31;62.15
63976;DHT22;50167;47.958;21.780;2022-12-10T14:47:38;11.32;62.10
63976;DHT22;50167;47.958;21.780;2022-12-10T14:50:14;11.51;61.81
63976;DHT22;50167;47.958;21.780;2022-12-10T14:52:44;11.58;61.70
63976;DHT22;50167;47.958;21.780;2022-12-10T14:55:16;11.49;61.43
63976;DHT22;50167;47.958;21.780;2022-12-10T14:57:54;11.32;61.50
63976;DHT22;50167;47.958;21.780;2022-12-10T15:00:22;11.47;61.26
63976;DHT22;50167;47.958;21.780;2022-12-10T15:03:00;11.30;61.43
63976;DHT22;50167;47.958;21.780;2022-12-10T15:05:30;11.27;61.41
63976;DHT22;50167;47.958;21.780;2022-12-10T15:08:04;11.25;61.49
63976;DHT22;50167;47.958;21.780;2022-12-10T15:10:45;10.90;62.38
63976;DHT22;50167;47.958;21.780;2022-12-10T15:13:22;10.79;62.61
63976;DHT22;50167;47.958;21.780;2022-12-10T15:15:51;10.71;62.68
63976;DHT22;50167;47.958;21.780;2022-12-10T15:18:36;10.75;62.78
63976;DHT22;50167;47.958;21.780;2022-12-10T15:21:20;10.87;62.32
63976;DHT22;50167;47.958;21.780;2022-12-10T15:23:47;10.52;63.20
63976;DHT22;50167;47.958;21.780;2022-12-10T15:26:19;10.63;62.91
63976;DHT22;50167;47.958;21.780;2022-12-10T15:28:48;10.65;62.66
63976;DHT22;50167;47.958;21.780;2022-12-10T15:31:32;10.73;62.46
63976;DHT22;50167;47.958;21.780;2022-12-10T15:34:08;10.84;62.08
63976;DHT22;50167;47.958;21.780;2022-12-10T15:36:53;11.00;61.37
63976;DHT22;50167;47.958;21.780;2022-12-10T15:41:58;10.52;62.49
63976;DHT22;50167;47.958;21.780;2022-12-10T15:47:09;10.71;61.95
63976;DHT22;50167;47.958;21.780;2022-12-10T15:49:36;10.53;62.17
63976;DHT22;50167;47.958;21.780;2022-12-10T15:52:03;10.32;62.69
63976;DHT22;50167;47.958;21.780;2022-12-10T15:56:53;10.41;62.13
63976;DHT22;50167;47.958;21.780;2022-12-10T15:59:19;10.41;62.34
63976;DHT22;50167;47.958;21.780;2022-12-10T16:01:45;10.20;62.88
63976;DHT22;50167;47.958;21.780;2022-12-10T16:04:13;9.96;63.45
63976;DHT22;50167;47.958;21.780;2022-12-10T16:06:40;10.06;63.33
63976;DHT22;50167;47.958;21.780;2022-12-10T16:09:09;10.14;63.08
63976;DHT22;50167;47.958;21.780;2022-12-10T16:11:36;10.04;63.27
63976;DHT22;50167;47.958;21.780;2022-12-10T16:14:02;10.23;62.72
63976;DHT22;50167;47.958;21.780;2022-12-10T16:16:29;10.10;63.06
63976;DHT22;50167;47.958;21.780;2022-12-10T16:18:55;10.27;62.73
63976;DHT22;50167;47.958;21.780;2022-12-10T16:21:21;10.34;62.35
63976;DHT22;50167;47.958;21.780;2022-12-10T16:23:48;10.36;62.38
63976;DHT22;50167;47.958;21.780;2022-12-10T16:26:17;10.48;62.03
63976;DHT22;50167;47.958;21.780;2022-12-10T16:28:44;10.65;61.59
63976;DHT22;50167;47.958;21.780;2022-12-10T16:31:15;10.55;61.82
63976;DHT22;50167;47.958;21.780;2022-12-10T16:33:43;10.39;62.09
63976;DHT22;50167;47.958;21.780;2022-12-10T16:36:13;10.20;62.57
63976;DHT22;50167;47.958;21.780;2022-12-10T16:38:39;10.29;62.32
63976;DHT22;50167;47.958;21.780;2022-12-10T16:41:21;10.25;62.38
63976;DHT22;50167;47.958;21.780;2022-12-10T16:43:47;10.36;62.02
63976;DHT22;50167;47.958;21.780;2022-12-10T16:46:14;10.55;61.47
63976;DHT22;50167;47.958;21.780;2022-12-10T16:48:40;10.32;62.04
63976;DHT22;50167;47.958;21.780;2022-12-10T16:51:23;10.15;62.50
63976;DHT22;50167;47.958;21.780;2022-12-10T16:53:50;9.86;63.39
63976;DHT22;50167;47.958;21.780;2022-12-10T16:56:17;9.58;64.12
63976;DHT22;50167;47.958;21.780;2022-12-10T16:58:44;9.42;64.85
63976;DHT22;50167;47.958;21.780;2022-12-10T17:01:21;9.46;64.70
63976;DHT22;50167;47.958;21.780;2022-12-10T17:03:49;9.29;65.08
63976;DHT22;50167;47.958;21.780;2022-12-10T17:06:17;9.21;65.50
63976;DHT22;50167;47.958;21.780;2022-12-10T17:08:44;9.29;65.55
63976;DHT22;50167;47.958;21.780;2022-12-10T17:11:18;9.38;65.22
63976;DHT22;50167;47.958;21.780;2022-12-10T17:14:04;9.43;65.11
63976;DHT22;50167;47.958;21.780;2022-12-10T17:16:32;9.62;64.35
63976;DHT22;50167;47.958;21.780;2022-12-10T17:18:58;9.76;64.22
63976;DHT22;50167;47.958;21.780;2022-12-10T17:21:24;9.90;63.77
63976;DHT22;50167;47.958;21.780;2022-12-10T17:23:50;10.21;63.01
63976;DHT22;50167;47.958;21.780;2022-12-10T17:26:28;10.23;62.52
63976;DHT22;50167;47.958;21.780;2022-12-10T17:29:00;10.61;61.80
63976;DHT22;50167;47.958;21.780;2022-12-10T17:31:26;10.51;61.70
63976;DHT22;50167;47.958;21.780;2022-12-10T17:33:52;10.83;61.14
63976;DHT22;50167;47.958;21.780;2022-12-10T17:36:19;10.66;61.53
63976;DHT22;50167;47.958;21.780;2022-12-10T17:38:45;10.39;61.68
63976;DHT22;50167;47.958;21.780;2022-12-10T17:41:11;10.18;62.27
63976;DHT22;50167;47.958;21.780;2022-12-10T17:43:38;10.34;61.94
63976;DHT22;50167;47.958;21.780;2022-12-10T17:46:09;10.39;61.67
63976;DHT22;50167;47.958;21.780;2022-12-10T17:48:36;10.13;62.08
63976;DHT22;50167;47.958;21.780;2022-12-10T17:51:02;9.86;62.98
63976;DHT22;50167;47.958;21.780;2022-12-10T17:53:28;9.76;63.39